Rollo, Illinois
Current Conditions -  °F | °C
As of 12:55 PM on Monday 20 Oct 2014 (Local Time) from KVYS Reporting Station
Clear Clear  
Wind Chill: 64°   Ceiling: Unl
Heat Index: 64°   Visibility: 10mi
Dew Point: 46°   Wind: 23mph
Humidity: 52%   Direction: 310°NW
Pressure: 29.89"   Gusts: NA
Location:  41.5869°N, 88.887°W
Report Text: KVYS 201755Z AUTO 31020KT 10SM CLR 18/08 A2989 RMK AO2 T01790079 10179 20087
Loading
Personal Weather Stations






























Interactive Weather Map New forecast layout! Learn more

10-Day Weather Forecast

Advertisements
Track Severe Weather on mobile